Terminal Aerodrome Forecast
Issued by NWS Springfield, MO

Home | Current Version | Previous Version | Text Only | Print | Product List | Glossary On
Versions: 1 2 3 4 5 6 7 8 9 10 11 12 13 14 15 16 17
988
FTUS43 KSGF 140520
TAFSGF
TAF
KSGF 140520Z 1406/1506 35008KT P6SM SKC
     FM141700 35007KT P6SM BKN110
     FM150200 VRB03KT P6SM BKN080=

USA.gov is the U.S. government's official web portal to all federal, state and local government web resources and services.